Time;durP1;ratioP1;P1;durP2;ratioP2;P2;SDS_P1;SDS_P2;PMS_P1;PMS_P2;Temp;Humidity;BMP_temperature;BMP_pressure;BME280_temperature;BME280_humidity;BME280_pressure;Samples;Min_cycle;Max_cycle;Signal;HPM_P1;HPM_P2
2023/09/06 00:01:45;;;;;;;6.90;4.87;;;18.60;99.90;;;18.90;73.49;95422.44;5037183;28;20567;-57
2023/09/06 00:04:12;;;;;;;5.87;4.13;;;18.60;99.90;;;18.85;73.56;95426.63;5035119;28;21308;-56
2023/09/06 00:06:40;;;;;;;5.13;3.73;;;18.50;99.90;;;18.79;73.57;95433.44;5034492;28;20467;-57
2023/09/06 00:09:09;;;;;;;4.90;3.70;;;18.50;99.90;;;18.74;73.07;95433.97;5041570;28;20875;-58
2023/09/06 00:11:36;;;;;;;8.07;4.40;;;18.40;99.90;;;18.72;73.88;95424.53;5040584;28;20507;-58
2023/09/06 00:14:04;;;;;;;4.70;4.30;;;18.40;99.90;;;18.72;74.23;95424.53;5039901;28;21027;-59
2023/09/06 00:16:31;;;;;;;8.83;4.47;;;18.40;99.90;;;18.70;73.76;95426.50;5036924;28;20494;-59
2023/09/06 00:19:00;;;;;;;5.10;4.40;;;18.30;99.90;;;18.68;73.97;95425.88;5039994;28;20475;-58
2023/09/06 00:21:54;;;;;;;4.90;4.50;;;18.30;99.90;;;18.68;75.11;95415.22;5041203;28;20456;-59
2023/09/06 00:24:22;;;;;;;4.40;4.10;;;18.30;99.90;;;18.66;75.03;95411.91;4991893;28;20520;-58
2023/09/06 00:26:49;;;;;;;5.40;4.53;;;18.30;99.90;;;18.65;74.87;95424.38;5037778;28;20484;-59
2023/09/06 00:29:16;;;;;;;4.30;4.00;;;18.30;99.90;;;18.63;75.00;95427.22;5046901;28;20528;-58
2023/09/06 00:31:44;;;;;;;5.67;4.80;;;18.30;99.90;;;18.61;75.02;95431.91;5039141;28;20941;-60
2023/09/06 00:34:14;;;;;;;4.57;4.23;;;18.30;99.90;;;18.58;74.80;95424.25;5036290;28;20556;-59
2023/09/06 00:36:41;;;;;;;4.63;4.23;;;18.20;99.90;;;18.58;74.96;95418.13;5040257;28;20489;-59
2023/09/06 00:39:10;;;;;;;5.50;5.07;;;18.20;99.90;;;18.56;74.93;95417.44;5038941;28;20476;-59
2023/09/06 00:41:39;;;;;;;4.23;3.90;;;18.20;99.90;;;18.56;74.68;95420.97;5036808;28;20567;-58
2023/09/06 00:44:08;;;;;;;5.13;4.73;;;18.20;99.90;;;18.57;74.60;95421.78;5036451;28;20516;-59
2023/09/06 00:46:35;;;;;;;5.87;4.53;;;18.20;99.90;;;18.53;74.26;95405.31;5033854;28;20445;-57
2023/09/06 00:49:03;;;;;;;5.30;4.87;;;18.20;99.90;;;18.53;75.09;95410.66;5039586;28;20484;-58
2023/09/06 00:51:32;;;;;;;5.20;4.73;;;18.20;99.90;;;18.54;75.28;95412.28;5036521;28;20471;-59
2023/09/06 00:54:00;;;;;;;4.77;4.37;;;18.20;99.90;;;18.53;75.37;95413.31;5040163;28;20542;-58
2023/09/06 00:56:28;;;;;;;4.70;4.30;;;18.20;99.90;;;18.54;75.70;95406.16;5034744;28;20597;-58
2023/09/06 00:58:55;;;;;;;4.60;4.30;;;18.20;99.90;;;18.54;75.58;95404.28;5037257;28;20483;-59
2023/09/06 01:01:22;;;;;;;7.60;4.70;;;18.20;99.90;;;18.53;75.78;95409.81;5039791;28;20886;-58
2023/09/06 01:03:49;;;;;;;20.80;5.77;;;18.20;99.90;;;18.52;75.50;95406.31;5037536;28;20482;-59
2023/09/06 01:06:20;;;;;;;5.80;4.60;;;18.20;99.90;;;18.53;75.91;95401.81;5038624;28;21016;-58
2023/09/06 01:08:56;;;;;;;6.03;4.50;;;18.20;99.90;;;18.52;75.86;95397.50;5035573;28;21001;-58
2023/09/06 01:11:26;;;;;;;10.37;4.40;;;18.20;99.90;;;18.53;76.24;95394.66;5036208;28;21074;-58
2023/09/06 01:13:54;;;;;;;4.93;4.30;;;18.20;99.90;;;18.54;75.71;95398.16;5036530;28;20480;-57
2023/09/06 01:16:26;;;;;;;5.53;4.80;;;18.20;99.90;;;18.55;75.54;95403.31;5039415;28;20545;-58
2023/09/06 01:18:54;;;;;;;12.83;4.27;;;18.20;99.90;;;18.56;75.59;95404.13;5037446;28;20984;-59
2023/09/06 01:21:24;;;;;;;5.97;4.20;;;18.20;99.90;;;18.57;76.13;95405.78;5036944;28;20480;-58
2023/09/06 01:23:53;;;;;;;4.17;3.77;;;18.20;99.90;;;18.57;75.60;95395.94;5036796;28;20472;-59
2023/09/06 01:26:20;;;;;;;5.57;5.07;;;18.20;99.90;;;18.57;75.79;95395.94;5035165;28;20531;-56
2023/09/06 01:28:49;;;;;;;6.90;4.60;;;18.20;99.90;;;18.57;75.65;95401.28;5037993;28;20479;-58
2023/09/06 01:31:17;;;;;;;6.23;4.53;;;18.20;99.90;;;18.57;75.77;95403.94;5039741;28;20520;-59
2023/09/06 01:33:45;;;;;;;6.60;4.30;;;18.20;99.90;;;18.57;75.49;95400.47;5041040;28;20998;-59
2023/09/06 01:36:12;;;;;;;5.20;4.80;;;18.20;99.90;;;18.53;74.89;95394.66;5045001;28;21055;-59
2023/09/06 01:38:41;;;;;;;9.93;5.23;;;18.20;99.90;;;18.56;75.21;95399.66;5033238;28;20461;-56
2023/09/06 01:41:12;;;;;;;8.37;4.83;;;18.20;99.90;;;18.53;75.04;95391.16;5038347;28;20457;-58
2023/09/06 01:43:40;;;;;;;14.00;5.17;;;18.20;99.90;;;18.58;74.75;95396.81;5038917;28;20483;-57
2023/09/06 01:46:07;;;;;;;4.90;4.50;;;18.20;99.90;;;18.56;74.09;95389.00;5042342;28;20468;-58
2023/09/06 01:48:36;;;;;;;5.63;4.70;;;18.20;99.90;;;18.57;74.78;95392.47;5040803;28;20476;-58
2023/09/06 01:51:05;;;;;;;10.40;5.37;;;18.20;99.90;;;18.55;73.95;95387.31;5039077;28;21011;-59
2023/09/06 01:53:33;;;;;;;7.60;5.37;;;18.20;99.90;;;18.53;74.30;95378.69;5037759;28;20515;-58
2023/09/06 01:56:02;;;;;;;5.43;5.03;;;18.20;99.90;;;18.52;74.61;95384.19;5038781;28;21038;-60
2023/09/06 01:58:32;;;;;;;7.70;5.77;;;18.20;99.90;;;18.52;74.48;95386.84;5034260;28;20491;-58
2023/09/06 02:01:00;;;;;;;12.40;5.40;;;18.20;99.90;;;18.52;74.43;95393.00;5036958;28;20523;-58
2023/09/06 02:03:28;;;;;;;5.63;4.90;;;18.20;99.90;;;18.52;74.59;95381.53;5033526;28;20473;-59
2023/09/06 02:05:55;;;;;;;19.97;6.10;;;18.10;99.90;;;18.52;74.38;95385.00;5034993;28;20458;-59
2023/09/06 02:08:22;;;;;;;9.13;5.73;;;18.20;99.90;;;18.53;74.65;95384.00;5036726;28;21047;-58
2023/09/06 02:10:50;;;;;;;5.70;5.17;;;18.20;99.90;;;18.54;74.17;95382.97;5037478;28;20865;-59
2023/09/06 02:13:17;;;;;;;6.27;5.67;;;18.20;99.90;;;18.57;74.04;95387.97;5041874;28;20568;-59
2023/09/06 02:15:46;;;;;;;11.17;5.53;;;18.20;99.90;;;18.59;73.71;95393.13;5035735;28;20483;-59
2023/09/06 02:18:15;;;;;;;6.17;4.60;;;18.30;99.90;;;18.59;73.70;95385.97;5037427;28;20541;-59
2023/09/06 02:20:42;;;;;;;5.67;5.07;;;18.20;99.90;;;18.60;73.87;95384.13;5035807;28;20477;-60
2023/09/06 02:23:10;;;;;;;6.13;5.20;;;18.30;99.90;;;18.61;74.04;95388.47;5032076;28;20558;-60
2023/09/06 02:25:37;;;;;;;7.80;4.63;;;18.20;99.90;;;18.59;73.90;95385.97;5037477;28;20455;-58
2023/09/06 02:28:06;;;;;;;6.47;4.77;;;18.20;99.90;;;18.61;73.54;95385.78;5037085;28;20490;-58
2023/09/06 02:30:37;;;;;;;5.30;4.80;;;18.30;99.90;;;18.61;73.22;95389.28;5031642;28;20468;-60
2023/09/06 02:33:07;;;;;;;8.60;4.83;;;18.20;99.90;;;18.60;73.23;95390.28;5036481;28;20502;-58
2023/09/06 02:35:40;;;;;;;7.80;4.43;;;18.20;99.90;;;18.59;72.94;95393.97;5035443;28;20531;-59
2023/09/06 02:38:37;;;;;;;7.97;4.97;;;18.20;99.90;;;18.59;72.34;95398.44;5035009;28;20563;-58
2023/09/06 02:41:04;;;;;;;14.87;5.20;;;18.30;99.90;;;18.55;72.70;95397.97;5027085;28;20530;-60
2023/09/06 02:43:31;;;;;;;5.90;4.63;;;18.20;99.90;;;18.52;72.39;95394.84;5038254;28;20475;-57
2023/09/06 02:46:03;;;;;;;6.33;5.07;;;18.20;99.90;;;18.46;72.02;95394.53;5034842;28;20471;-58
2023/09/06 02:48:33;;;;;;;5.00;4.70;;;18.10;99.90;;;18.44;72.24;95395.72;5032445;28;20559;-59
2023/09/06 02:51:00;;;;;;;9.43;5.40;;;18.10;99.90;;;18.42;72.76;95382.59;5034536;28;20469;-59
2023/09/06 02:53:31;;;;;;;8.77;5.07;;;18.10;99.90;;;18.40;72.38;95379.28;5036465;28;20590;-58
2023/09/06 02:55:59;;;;;;;5.90;5.00;;;18.10;99.90;;;18.39;72.77;95382.13;5035325;28;20448;-56
2023/09/06 02:58:26;;;;;;;6.33;5.73;;;18.00;99.90;;;18.39;72.44;95387.44;5035958;28;20492;-57
2023/09/06 03:00:57;;;;;;;10.30;5.40;;;18.00;99.90;;;18.37;72.82;95392.09;5036181;28;20468;-59
2023/09/06 03:03:27;;;;;;;5.57;5.00;;;18.00;99.90;;;18.34;72.32;95395.09;5037267;28;20956;-57
2023/09/06 03:05:58;;;;;;;9.43;5.53;;;18.00;99.90;;;18.31;72.66;95398.13;5037051;28;20479;-57
2023/09/06 03:08:27;;;;;;;7.17;5.50;;;18.00;99.90;;;18.29;72.50;95400.94;5040148;28;20988;-57
2023/09/06 03:10:55;;;;;;;8.77;5.40;;;18.00;99.90;;;18.27;72.48;95401.13;5038372;28;20480;-57
2023/09/06 03:13:22;;;;;;;8.60;5.37;;;17.90;99.90;;;18.24;72.48;95403.31;5036655;28;20484;-57
2023/09/06 03:15:51;;;;;;;8.67;5.37;;;18.00;99.90;;;18.22;73.13;95406.16;5042444;28;20476;-56
2023/09/06 03:18:18;;;;;;;7.03;5.27;;;17.90;99.90;;;18.22;72.94;95408.81;5035882;28;20495;-59
2023/09/06 03:20:46;;;;;;;8.03;5.90;;;17.90;99.90;;;18.22;72.89;95406.16;5035000;28;20460;-58
2023/09/06 03:23:18;;;;;;;6.50;5.90;;;17.90;99.90;;;18.22;73.44;95403.50;5037466;28;20476;-59
2023/09/06 03:25:45;;;;;;;8.90;5.77;;;17.90;99.90;;;18.24;73.90;95405.97;5038320;28;20465;-59
2023/09/06 03:28:13;;;;;;;6.77;5.80;;;17.90;99.90;;;18.26;73.58;95404.81;5033901;28;20475;-59
2023/09/06 03:30:40;;;;;;;6.70;6.10;;;17.90;99.90;;;18.28;73.57;95410.78;5037613;28;20468;-59
2023/09/06 03:33:08;;;;;;;8.63;5.77;;;17.90;99.90;;;18.30;72.99;95412.47;5032446;28;20505;-59
2023/09/06 03:35:35;;;;;;;6.90;5.77;;;17.90;99.90;;;18.33;72.74;95412.09;5031564;28;20476;-56
2023/09/06 03:38:03;;;;;;;7.97;5.70;;;18.00;99.90;;;18.33;72.37;95406.78;5037183;28;20495;-59
2023/09/06 03:40:38;;;;;;;8.70;5.30;;;18.00;99.90;;;18.33;72.91;95412.09;5039592;28;20475;-57
2023/09/06 03:43:14;;;;;;;5.50;5.00;;;18.00;99.90;;;18.33;72.95;95406.78;5038223;28;20471;-57
2023/09/06 03:45:44;;;;;;;7.70;5.00;;;18.00;99.90;;;18.32;72.30;95408.59;5040820;28;20443;-58
2023/09/06 03:48:12;;;;;;;7.43;5.33;;;18.00;99.90;;;18.33;72.34;95407.59;5038931;28;20885;-58
2023/09/06 03:50:40;;;;;;;7.47;5.60;;;18.00;99.90;;;18.34;72.70;95409.28;5036768;28;20542;-58
2023/09/06 03:53:07;;;;;;;5.57;5.03;;;18.00;99.90;;;18.35;72.63;95410.91;5037313;28;20821;-57
2023/09/06 03:55:37;;;;;;;5.40;5.00;;;18.00;99.90;;;18.35;72.96;95418.09;5042339;28;20460;-57
2023/09/06 03:58:07;;;;;;;18.83;5.67;;;18.00;99.90;;;18.35;72.83;95420.75;5041798;28;20491;-56
2023/09/06 04:00:34;;;;;;;5.57;4.87;;;18.00;99.90;;;18.36;72.29;95425.06;5034686;28;20481;-58
2023/09/06 04:03:03;;;;;;;12.20;5.40;;;18.00;99.90;;;18.35;72.73;95424.22;5041134;28;20451;-56
2023/09/06 04:05:32;;;;;;;5.80;5.30;;;18.00;99.90;;;18.37;72.92;95432.88;5037485;28;20482;-58
2023/09/06 04:08:00;;;;;;;4.67;4.37;;;18.00;99.90;;;18.37;72.85;95430.22;5033891;28;20567;-57
2023/09/06 04:10:35;;;;;;;6.43;5.10;;;18.00;99.90;;;18.38;72.00;95425.72;5040247;28;20455;-57
2023/09/06 04:13:04;;;;;;;11.73;4.70;;;18.00;99.90;;;18.36;72.55;95422.41;5037769;28;20463;-57
2023/09/06 04:15:34;;;;;;;8.23;5.20;;;18.00;99.90;;;18.37;71.67;95432.88;5042131;28;20512;-56
2023/09/06 04:18:02;;;;;;;9.03;5.17;;;18.00;99.90;;;18.35;71.31;95429.56;5035645;28;20939;-56
2023/09/06 04:20:31;;;;;;;5.67;4.87;;;18.00;99.90;;;18.36;71.22;95430.41;5039618;28;20978;-57
2023/09/06 04:23:04;;;;;;;5.57;4.83;;;18.00;99.90;;;18.35;70.92;95434.88;5034187;28;21086;-59
2023/09/06 04:25:33;;;;;;;5.07;4.40;;;18.00;99.90;;;18.36;70.76;95433.06;5033455;28;20493;-58
2023/09/06 04:28:01;;;;;;;5.60;5.00;;;18.00;99.90;;;18.37;71.03;95435.56;5041240;28;20456;-57
2023/09/06 04:30:30;;;;;;;6.57;4.40;;;18.00;99.90;;;18.43;70.93;95444.66;5035665;28;20487;-57
2023/09/06 04:32:58;;;;;;;7.27;4.93;;;18.10;99.90;;;18.50;70.98;95442.97;5034485;28;20465;-58
2023/09/06 04:35:33;;;;;;;7.43;5.37;;;18.10;99.90;;;18.57;70.94;95429.78;5038047;28;20482;-57
2023/09/06 04:38:02;;;;;;;11.33;4.80;;;18.20;99.90;;;18.63;71.52;95432.56;5036296;28;20597;-58
2023/09/06 04:40:30;;;;;;;7.73;4.73;;;18.30;99.90;;;18.70;71.06;95434.50;5036331;28;20463;-57
2023/09/06 04:42:57;;;;;;;8.67;5.40;;;18.30;99.90;;;18.75;71.01;95432.97;5033992;28;21008;-56
2023/09/06 04:45:24;;;;;;;7.97;5.10;;;18.40;99.90;;;18.82;71.08;95433.09;5042862;28;20911;-57
2023/09/06 04:47:53;;;;;;;10.63;6.30;;;18.50;99.90;;;18.87;70.41;95433.44;5033921;28;20487;-57
2023/09/06 04:50:21;;;;;;;9.20;5.80;;;18.50;99.90;;;18.93;71.13;95438.06;5035527;28;20483;-57
2023/09/06 04:52:50;;;;;;;29.30;21.50;;;18.50;99.90;;;18.98;70.55;95446.34;5032444;28;20456;-57
2023/09/06 04:55:19;;;;;;;22.10;12.27;;;18.60;99.90;;;18.98;69.80;95445.53;5036735;28;20563;-56
2023/09/06 04:57:47;;;;;;;9.00;6.10;;;18.70;99.90;;;18.98;70.09;95446.34;5036679;28;20494;-57
2023/09/06 05:00:23;;;;;;;7.03;5.30;;;18.70;99.90;;;19.02;69.87;95446.00;5038341;28;20549;-58
2023/09/06 05:02:52;;;;;;;9.43;5.73;;;18.70;99.90;;;19.07;70.49;95443.63;5041802;28;20518;-58
2023/09/06 05:05:21;;;;;;;14.10;5.33;;;18.70;99.90;;;19.09;69.70;95444.28;5038264;28;20563;-56
2023/09/06 05:07:50;;;;;;;7.87;4.63;;;18.70;99.90;;;19.14;70.14;95445.38;5035325;28;20508;-58
2023/09/06 05:10:18;;;;;;;6.37;5.67;;;18.70;99.90;;;19.20;70.13;95448.38;5038685;28;20476;-60
2023/09/06 05:12:46;;;;;;;9.90;5.90;;;18.90;99.90;;;19.26;69.91;95447.66;5037759;28;21011;-59
2023/09/06 05:15:13;;;;;;;11.07;6.30;;;18.90;99.90;;;19.30;70.22;95448.94;5034784;28;20481;-60
2023/09/06 05:17:41;;;;;;;7.60;6.13;;;19.00;99.90;;;19.35;70.36;95452.72;5038802;28;20492;-60
2023/09/06 05:20:30;;;;;;;10.73;6.50;;;19.00;99.90;;;19.41;70.29;95450.34;5036610;28;20494;-60
2023/09/06 05:22:58;;;;;;;7.77;5.20;;;19.00;99.90;;;19.44;69.77;95456.16;5036250;28;20487;-59
2023/09/06 05:25:26;;;;;;;13.00;6.23;;;19.10;99.90;;;19.51;69.74;95461.59;5033545;28;20508;-59
2023/09/06 05:27:57;;;;;;;8.67;6.13;;;19.10;99.90;;;19.58;69.67;95457.22;5040764;28;20530;-58
2023/09/06 05:30:25;;;;;;;12.33;6.47;;;19.20;99.90;;;19.65;69.37;95462.66;5031946;28;21009;-62
2023/09/06 05:32:52;;;;;;;16.33;5.83;;;19.30;99.90;;;19.73;69.44;95464.41;5032107;28;20499;-60
2023/09/06 05:35:19;;;;;;;17.57;6.13;;;19.30;99.90;;;19.81;69.19;95467.84;5038010;28;20562;-61
2023/09/06 05:37:48;;;;;;;12.30;5.90;;;19.40;99.90;;;19.87;68.24;95468.94;5034534;28;20528;-60
2023/09/06 05:40:16;;;;;;;5.50;5.10;;;19.50;99.90;;;19.91;68.52;95470.25;5036285;28;20480;-60
2023/09/06 05:42:43;;;;;;;7.63;5.50;;;19.50;99.90;;;19.96;67.92;95470.53;5039407;28;20957;-63
2023/09/06 05:45:13;;;;;;;7.73;5.10;;;19.60;99.90;;;20.01;67.73;95472.66;5039857;28;20996;-61
2023/09/06 05:47:40;;;;;;;11.67;6.23;;;19.60;99.90;;;20.05;67.60;95469.44;5034024;28;20447;-58
2023/09/06 05:50:08;;;;;;;6.97;6.17;;;19.70;99.90;;;20.09;67.32;95472.53;5030542;28;21042;-58
2023/09/06 05:52:36;;;;;;;6.40;5.80;;;19.70;99.90;;;20.10;67.07;95470.72;5032106;28;20547;-61
2023/09/06 05:55:06;;;;;;;6.83;5.83;;;19.70;99.90;;;20.10;66.54;95470.72;5040721;28;20495;-60
2023/09/06 05:57:34;;;;;;;6.73;5.87;;;19.70;99.90;;;20.08;66.52;95473.56;5033286;28;20549;-60
2023/09/06 06:00:02;;;;;;;8.93;6.20;;;19.70;99.90;;;20.06;66.87;95465.75;5038991;28;20480;-59
2023/09/06 06:02:31;;;;;;;9.67;6.43;;;19.70;99.90;;;20.08;66.93;95478.06;5039855;28;20563;-59
2023/09/06 06:04:58;;;;;;;14.47;6.70;;;19.70;99.90;;;20.09;66.88;95479.75;5035888;28;20487;-59
2023/09/06 06:07:25;;;;;;;7.80;6.33;;;19.70;99.90;;;20.09;66.79;95480.56;5032981;28;20533;-59
2023/09/06 06:09:53;;;;;;;7.47;6.37;;;19.70;99.90;;;20.10;66.98;95476.88;5036562;28;20595;-60
2023/09/06 06:12:22;;;;;;;13.50;6.30;;;19.70;99.90;;;20.12;66.75;95490.06;5033845;28;21006;-61
2023/09/06 06:14:51;;;;;;;7.73;6.40;;;19.80;99.90;;;20.12;66.67;95490.88;5036154;28;20467;-60
2023/09/06 06:17:18;;;;;;;11.20;6.50;;;19.80;99.90;;;20.12;66.82;95487.38;5032412;28;20481;-60
2023/09/06 06:19:46;;;;;;;11.90;6.40;;;19.80;99.90;;;20.14;66.51;95493.34;5034190;28;20607;-60
2023/09/06 06:22:13;;;;;;;35.30;21.30;;;19.80;99.90;;;20.17;66.32;95498.34;5032845;28;20507;-59
2023/09/06 06:24:42;;;;;;;12.37;7.23;;;19.90;99.90;;;20.22;66.33;95506.66;5037018;28;20541;-57
2023/09/06 06:27:10;;;;;;;8.90;6.33;;;19.90;99.90;;;20.24;66.26;95505.44;5035536;28;20973;-61
2023/09/06 06:29:38;;;;;;;6.50;5.80;;;19.90;99.90;;;20.31;65.99;95518.03;5037597;28;20562;-59
2023/09/06 06:32:06;;;;;;;12.27;6.50;;;19.90;99.90;;;20.36;65.86;95513.81;5036989;28;20560;-61
2023/09/06 06:35:21;;;;;;;22.07;5.57;;;20.00;99.90;;;20.50;65.13;95508.66;5034579;28;20889;-61
2023/09/06 06:37:50;;;;;;;8.47;5.90;;;20.10;99.90;;;20.63;65.07;95514.16;5018987;28;20871;-60
2023/09/06 06:40:18;;;;;;;10.63;6.00;;;20.20;99.90;;;20.79;64.92;95515.84;5030241;28;20938;-58
2023/09/06 06:42:46;;;;;;;22.40;6.97;;;20.40;99.90;;;20.98;64.48;95516.25;5038158;28;20538;-60
2023/09/06 06:45:15;;;;;;;10.20;5.63;;;20.50;99.90;;;21.11;63.56;95519.88;5034408;28;20562;-59
2023/09/06 06:47:42;;;;;;;12.37;6.00;;;20.70;99.90;;;21.23;63.39;95524.75;5037452;28;20498;-60
2023/09/06 06:50:10;;;;;;;8.10;5.17;;;20.80;99.90;;;21.34;62.69;95515.41;5035457;28;20522;-59
2023/09/06 06:52:43;;;;;;;12.23;6.00;;;20.90;99.90;;;21.40;62.13;95515.44;5036446;28;20471;-59
2023/09/06 06:55:11;;;;;;;5.63;5.20;;;20.90;99.90;;;21.49;62.15;95513.50;5038786;28;20852;-59
2023/09/06 06:57:38;;;;;;;48.47;32.07;;;21.10;99.90;;;21.58;61.92;95511.50;5033998;28;20522;-60
2023/09/06 07:00:11;;;;;;;17.03;10.00;;;21.20;99.90;;;21.64;61.65;95513.41;5032625;28;21451;-60
2023/09/06 07:02:39;;;;;;;10.93;6.40;;;21.20;99.90;;;21.74;60.85;95521.16;5031422;28;20475;-60
2023/09/06 07:05:08;;;;;;;7.70;5.10;;;21.30;99.90;;;21.80;60.61;95515.00;5038742;28;20507;-61
2023/09/06 07:07:35;;;;;;;8.70;5.80;;;21.40;99.90;;;21.87;60.41;95515.06;5036300;28;20474;-60
2023/09/06 07:10:02;;;;;;;8.90;4.67;;;21.50;99.90;;;22.00;60.45;95523.19;5039448;28;20814;-59
2023/09/06 07:12:29;;;;;;;7.00;5.40;;;21.60;99.90;;;22.12;59.85;95520.78;5037713;28;20456;-60
2023/09/06 07:14:57;;;;;;;12.70;6.00;;;21.70;99.90;;;22.27;59.92;95518.00;5031780;28;20637;-61
2023/09/06 07:17:24;;;;;;;7.57;5.37;;;21.80;99.90;;;22.41;60.20;95524.31;5039150;28;20453;-60
2023/09/06 07:19:54;;;;;;;10.93;5.70;;;22.00;99.90;;;22.56;59.68;95520.47;5034940;28;20476;-60
2023/09/06 07:22:21;;;;;;;6.63;6.00;;;22.10;99.90;;;22.74;59.90;95527.13;5031485;28;20566;-60
2023/09/06 07:24:48;;;;;;;10.43;5.30;;;22.30;99.70;;;22.95;59.42;95522.72;5037395;28;20471;-60
2023/09/06 07:27:15;;;;;;;8.43;5.70;;;22.40;99.30;;;23.15;59.16;95518.25;5032844;28;20479;-58
2023/09/06 07:29:43;;;;;;;7.33;5.57;;;22.60;99.00;;;23.32;57.76;95512.53;5032555;28;20480;-60
2023/09/06 07:32:10;;;;;;;12.67;5.60;;;22.80;98.60;;;23.43;57.47;95509.22;5038238;28;20476;-60
2023/09/06 07:34:37;;;;;;;6.33;5.03;;;23.00;98.10;;;23.51;57.34;95506.34;5036574;28;20542;-59
2023/09/06 07:37:06;;;;;;;14.73;6.40;;;23.00;98.00;;;23.63;57.46;95510.06;5036638;28;20460;-59
2023/09/06 07:39:33;;;;;;;8.30;6.23;;;23.10;98.00;;;23.76;56.87;95511.09;5039107;28;20495;-60
2023/09/06 07:42:01;;;;;;;17.33;5.83;;;23.30;97.70;;;23.89;57.31;95513.81;5036342;28;20906;-59
2023/09/06 07:44:32;;;;;;;7.37;5.10;;;23.40;97.40;;;24.02;56.83;95507.59;5039017;28;20475;-61
2023/09/06 07:46:59;;;;;;;11.00;5.87;;;23.50;97.20;;;24.16;56.37;95503.03;5033525;28;20554;-60
2023/09/06 07:49:30;;;;;;;11.20;5.43;;;23.60;96.70;;;24.27;55.83;95502.41;5032774;28;20484;-60
2023/09/06 07:51:59;;;;;;;13.03;6.20;;;23.80;96.60;;;24.39;55.95;95499.09;5032406;28;20487;-59
2023/09/06 07:54:27;;;;;;;7.70;4.93;;;23.90;96.30;;;24.42;55.73;95495.97;5037827;28;20483;-60
2023/09/06 07:56:55;;;;;;;6.40;5.00;;;24.00;95.80;;;24.37;55.04;95496.59;5034613;28;20480;-60
2023/09/06 07:59:23;;;;;;;9.20;4.90;;;23.90;95.30;;;24.33;54.89;95503.44;5034992;28;20498;-60
2023/09/06 08:01:50;;;;;;;14.23;5.90;;;23.90;94.80;;;24.22;54.58;95496.84;5041067;28;20988;-60
2023/09/06 08:04:19;;;;;;;13.10;9.10;;;23.80;94.20;;;24.09;55.15;95497.69;5032414;28;20476;-59
2023/09/06 08:06:47;;;;;;;9.60;6.57;;;23.70;94.50;;;24.03;55.37;95486.94;5037267;28;20467;-62
2023/09/06 08:09:14;;;;;;;9.13;5.40;;;23.70;94.80;;;24.05;55.29;95496.44;5036178;28;20884;-59
2023/09/06 08:11:43;;;;;;;7.83;5.47;;;23.60;94.80;;;24.17;55.33;95500.16;5034090;28;20499;-59
2023/09/06 08:14:10;;;;;;;8.67;4.90;;;23.70;94.90;;;24.56;55.12;95507.50;5040727;28;20464;-60
2023/09/06 08:16:38;;;;;;;7.47;5.23;;;24.10;95.00;;;25.08;54.56;95507.53;5040010;28;20540;-60
2023/09/06 08:19:05;;;;;;;17.47;5.50;;;24.50;94.70;;;25.44;53.23;95498.00;5040754;28;20510;-59
2023/09/06 08:21:32;;;;;;;9.40;6.30;;;24.90;93.40;;;25.72;52.85;95495.75;5038400;28;20503;-59
2023/09/06 08:24:01;;;;;;;6.00;5.13;;;25.30;93.20;;;26.06;52.22;95501.72;5036179;28;20574;-59
2023/09/06 08:26:29;;;;;;;8.90;5.20;;;25.70;92.30;;;26.56;51.14;95508.06;5040819;28;20516;-58
2023/09/06 08:28:58;;;;;;;7.63;5.40;;;26.10;91.30;;;27.18;49.49;95500.66;5037468;28;20487;-58
2023/09/06 08:31:25;;;;;;;8.77;5.97;;;26.80;89.60;;;27.87;48.72;95503.00;5037384;28;20452;-62
2023/09/06 08:33:52;;;;;;;6.60;5.03;;;27.60;87.10;;;28.50;46.90;95508.78;5042273;28;20483;-60
2023/09/06 08:36:20;;;;;;;10.00;6.03;;;28.20;83.50;;;29.06;46.61;95506.47;5037976;28;20606;-58
2023/09/06 08:38:48;;;;;;;7.40;5.37;;;28.80;81.00;;;29.56;44.89;95515.00;5039826;28;20571;-59
2023/09/06 08:41:15;;;;;;;5.70;5.07;;;29.30;76.70;;;29.80;44.02;95510.31;5032433;28;20521;-60
2023/09/06 08:43:43;;;;;;;14.43;5.50;;;29.50;73.70;;;29.80;43.48;95503.00;5035034;28;20712;-58
2023/09/06 08:46:17;;;;;;;6.00;5.27;;;29.60;71.50;;;29.88;42.89;95503.66;5042051;28;20463;-59
2023/09/06 08:48:45;;;;;;;12.27;6.10;;;29.70;71.30;;;30.02;43.21;95497.66;5037041;28;20483;-58
2023/09/06 08:51:12;;;;;;;6.47;5.80;;;29.70;71.80;;;30.02;42.25;95494.97;5038713;28;20512;-59
2023/09/06 08:53:40;;;;;;;73.53;8.30;;;29.70;70.20;;;29.85;41.91;95497.66;5041579;28;20502;-59
2023/09/06 08:56:08;;;;;;;6.53;5.57;;;29.50;68.80;;;29.56;43.19;95502.28;5043344;28;20463;-59
2023/09/06 08:58:35;;;;;;;8.07;5.63;;;29.30;69.30;;;29.20;42.79;95506.22;5036305;28;20504;-58
2023/09/06 09:01:04;;;;;;;10.33;6.50;;;29.00;69.30;;;28.88;43.96;95504.78;5041910;28;20476;-61
2023/09/06 09:03:33;;;;;;;10.20;5.60;;;28.60;70.20;;;28.76;43.82;95498.56;5038976;28;20499;-60
2023/09/06 09:06:02;;;;;;;11.03;5.97;;;28.40;71.10;;;28.61;42.96;95497.19;5032701;28;20245;-60
2023/09/06 09:08:30;;;;;;;5.37;4.73;;;28.30;69.30;;;28.27;43.19;95493.41;5035229;28;20574;-64
2023/09/06 09:11:09;;;;;;;6.07;5.47;;;28.00;69.10;;;27.87;44.08;95489.50;5039261;28;20472;-60
2023/09/06 09:13:37;;;;;;;15.00;5.00;;;27.60;70.30;;;27.55;44.18;95489.78;5034333;28;20562;-60
2023/09/06 09:16:08;;;;;;;13.43;6.00;;;27.30;71.10;;;27.33;45.22;95496.78;5037796;28;20455;-61
2023/09/06 09:18:38;;;;;;;7.07;5.53;;;27.00;72.00;;;27.18;45.48;95491.75;5034885;28;20555;-61
2023/09/06 09:21:05;;;;;;;12.00;6.03;;;26.80;72.40;;;26.98;44.46;95497.41;5034900;28;20460;-61
2023/09/06 09:23:33;;;;;;;6.80;5.63;;;26.60;71.00;;;26.69;44.52;95480.94;5035564;28;20469;-60
2023/09/06 09:26:00;;;;;;;9.63;5.83;;;26.30;71.10;;;26.45;45.37;95499.66;5037724;28;21038;-60
2023/09/06 09:28:27;;;;;;;6.10;5.07;;;26.10;72.00;;;26.36;45.86;95495.59;5035083;28;20466;-61
2023/09/06 09:30:57;;;;;;;7.10;6.07;;;26.00;72.80;;;26.33;45.91;95498.75;5034238;28;20466;-62
2023/09/06 09:33:28;;;;;;;9.10;6.90;;;25.90;73.70;;;26.23;45.97;95491.19;5036542;28;20554;-60
2023/09/06 09:35:57;;;;;;;6.57;5.77;;;25.90;73.90;;;26.18;45.96;95490.19;5035871;28;20555;-61
2023/09/06 09:38:24;;;;;;;8.33;6.43;;;25.80;74.30;;;26.05;45.98;95489.28;5034847;28;20923;-60
2023/09/06 09:41:05;;;;;;;6.60;5.57;;;25.70;73.70;;;25.98;46.41;95493.06;5032694;28;20471;-61
2023/09/06 09:43:32;;;;;;;14.60;7.00;;;25.60;74.00;;;25.86;46.56;95490.25;5034818;28;21019;-61
2023/09/06 09:46:00;;;;;;;8.60;5.93;;;25.50;74.50;;;25.74;46.43;95490.94;5040266;28;20879;-61
2023/09/06 09:48:30;;;;;;;12.30;6.03;;;25.40;74.50;;;25.65;46.24;95500.34;5029781;28;20530;-61
2023/09/06 09:51:00;;;;;;;6.33;5.63;;;25.30;74.30;;;25.51;46.74;95490.72;5028297;28;20443;-62
2023/09/06 09:53:28;;;;;;;8.93;5.73;;;25.10;74.30;;;25.41;46.61;95494.72;5036574;28;20476;-60
2023/09/06 09:55:56;;;;;;;6.23;5.70;;;25.10;74.70;;;25.32;46.45;95500.59;5035757;28;20468;-59
2023/09/06 09:58:24;;;;;;;11.00;6.30;;;24.90;74.40;;;25.20;46.28;95498.53;5034550;28;20472;-60
2023/09/06 10:00:51;;;;;;;6.70;5.30;;;24.90;74.40;;;25.09;46.92;95490.34;5035068;28;20476;-62
2023/09/06 10:03:19;;;;;;;6.47;5.93;;;24.80;74.90;;;25.04;47.05;95491.81;5037798;28;21005;-60
2023/09/06 10:05:46;;;;;;;13.00;6.90;;;24.70;75.60;;;25.04;47.25;95494.50;5035828;28;20867;-61
2023/09/06 10:08:15;;;;;;;6.40;5.80;;;24.70;75.90;;;25.06;47.29;95487.03;5035176;28;20469;-61
2023/09/06 10:10:42;;;;;;;10.70;6.80;;;24.70;76.00;;;25.10;47.37;95491.97;5037884;28;20451;-60
2023/09/06 10:13:10;;;;;;;8.30;6.53;;;24.70;76.10;;;25.15;47.30;95479.53;5037440;28;20818;-59
2023/09/06 10:15:38;;;;;;;7.80;7.00;;;24.70;76.10;;;25.18;47.41;95483.66;5037109;28;20976;-60
2023/09/06 10:18:06;;;;;;;10.80;6.27;;;24.70;76.10;;;25.20;47.23;95487.78;5037451;28;20469;-61
2023/09/06 10:20:34;;;;;;;10.30;6.00;;;24.70;75.70;;;25.15;47.48;95473.34;5034866;28;20526;-60
2023/09/06 10:23:04;;;;;;;10.93;6.73;;;24.70;76.20;;;25.09;47.44;95475.00;5040308;28;20475;-59
2023/09/06 10:25:33;;;;;;;12.17;5.97;;;24.70;75.80;;;25.03;47.19;95471.31;5032639;28;20472;-61